Riverview, FL (33578)

6:38 PM EDT on September 30, 2014 (GMT -0400)
Riverglen | Change Station
CLOSE
Current Station
Personal Weather Station
Location: Riverview, FL
Elevation: 75 ft
Nearby Weather Stations
Active Advisory: Flood Warning

Elev 75 ft 27.86 °N, 82.30 °W | Updated 8 minutes ago

Partly Cloudy
Partly Cloudy
80.4 °F
Feels Like 88 °F
N
1.1
Wind Variable Wind from ESE

Today
High -- | Low -- °F
--% Chance of Precip.
Yesterday
High -- | Low -- °F
Precip. -- in
7:21 AM 7:16 PM
Waxing Crescent, 40% visible
Pressure 29.83 in
Visibility 10.0 miles
Clouds Scattered Clouds 2600 ft
Scattered Clouds 3700 ft
Mostly Cloudy 8500 ft
Heat Index 88 °F
Dew Point 79 °F
Humidity 96%
Rainfall 1.92 in
Snow Depth Not available.
UV 0 out of 12
Pollen 5.00 out of 12
Air Quality Not available.
Flu Activity Not available.
METAR KVDF 302215Z AUTO 21014G31KT 10SM SCT026 SCT037 BKN085 28/25 A2983 RMK AO2

More Conditions Fewer Conditions

Pressure 29.83 in
Visibility 10.0 miles
Clouds Scattered Clouds 2600 ft
Scattered Clouds 3700 ft
Mostly Cloudy 8500 ft
Heat Index 88 °F
Dew Point 79 °F
Humidity 96%
Rainfall 1.92 in
Snow Depth Not available.
UV 0 out of 12
Pollen 5.00 out of 12
Air Quality Not available.
Flu Activity Not available.
METAR KVDF 302215Z AUTO 21014G31KT 10SM SCT026 SCT037 BKN085 28/25 A2983 RMK AO2

More Conditions Fewer Conditions

10-Day Weather Forecast

Almanac

Astronomy

Sep. 30, 2014 Rise Set
Actual Time 7:21 AM EDT 7:16 PM EDT
Civil Twilight 6:58 AM EDT 7:39 PM EDT
Nautical Twilight 6:31 AM EDT 8:06 PM EDT
Astronomical Twilight 6:03 AM EDT 8:34 PM EDT
Moon 1:05 PM EDT No Moon Set
Length of Visible Light 12h 41m
Length of Day
11h 54m
Tomorrow will be 1m 38s shorter.
Waxing Crescent, 40% of the Moon is Illuminated
Today
Waxing Crescent
Oct 1
First Quarter
Oct 8
Full
Oct 15
Last Quarter
Oct 23
New

Today's Extremes

State Highs State Lows

Community

WunderPhotos

Upload Photos

1,757,767 photos uploaded!

Nearby

Snow Depth

Station Depth Elevation
No new snow has been reported.

Earthquake Activity

City Distance Mag. Time & Date
No recent earthquake activity has been reported nearby.
Minimum magnitude displayed is 2.5.

Coastal Water Temperatures

Place Temperature
St Petersburg, FL 84.9 °F
Old Port Tampa, FL 84.0 °F
McKay Bay Entrance, FL 84.9 °F

Nearby Weather Stations